sensor_id;sensor_type;location;lat;lon;timestamp;pressure;altitude;pressure_sealevel;temperature;humidity
17615;BME280;8926;49.720;6.576;2023-05-12T00:01:15;99541.59;;;13.85;86.21
17615;BME280;8926;49.720;6.576;2023-05-12T00:03:40;99543.28;;;13.86;86.10
17615;BME280;8926;49.720;6.576;2023-05-12T00:06:06;99539.69;;;13.87;85.88
17615;BME280;8926;49.720;6.576;2023-05-12T00:08:32;99535.63;;;13.83;85.20
17615;BME280;8926;49.720;6.576;2023-05-12T00:10:57;99540.13;;;13.81;85.48
17615;BME280;8926;49.720;6.576;2023-05-12T00:13:23;99538.47;;;13.80;85.07
17615;BME280;8926;49.720;6.576;2023-05-12T00:15:49;99535.09;;;13.78;85.39
17615;BME280;8926;49.720;6.576;2023-05-12T00:18:15;99535.38;;;13.75;85.60
17615;BME280;8926;49.720;6.576;2023-05-12T00:20:40;99532.00;;;13.73;85.99
17615;BME280;8926;49.720;6.576;2023-05-12T00:23:06;99534.13;;;13.68;86.15
17615;BME280;8926;49.720;6.576;2023-05-12T00:25:31;99530.78;;;13.66;86.55
17615;BME280;8926;49.720;6.576;2023-05-12T00:27:56;99532.44;;;13.67;86.01
17615;BME280;8926;49.720;6.576;2023-05-12T00:30:22;99528.88;;;13.68;86.75
17615;BME280;8926;49.720;6.576;2023-05-12T00:32:47;99532.22;;;13.70;86.35
17615;BME280;8926;49.720;6.576;2023-05-12T00:35:13;99532.44;;;13.67;85.63
17615;BME280;8926;49.720;6.576;2023-05-12T00:37:40;99533.50;;;13.64;86.27
17615;BME280;8926;49.720;6.576;2023-05-12T00:40:06;99524.06;;;13.62;86.48
17615;BME280;8926;49.720;6.576;2023-05-12T00:42:33;99520.72;;;13.59;86.40
17615;BME280;8926;49.720;6.576;2023-05-12T00:44:58;99522.81;;;13.54;86.35
17615;BME280;8926;49.720;6.576;2023-05-12T00:47:24;99521.41;;;13.50;86.49
17615;BME280;8926;49.720;6.576;2023-05-12T00:49:50;99512.91;;;13.47;87.01
17615;BME280;8926;49.720;6.576;2023-05-12T00:52:15;99511.84;;;13.49;86.67
17615;BME280;8926;49.720;6.576;2023-05-12T00:54:41;99512.78;;;13.48;86.32
17615;BME280;8926;49.720;6.576;2023-05-12T00:57:07;99517.31;;;13.46;86.41
17615;BME280;8926;49.720;6.576;2023-05-12T00:59:32;99507.75;;;13.45;86.74
17615;BME280;8926;49.720;6.576;2023-05-12T01:01:57;99507.53;;;13.48;87.02
17615;BME280;8926;49.720;6.576;2023-05-12T01:04:23;99504.19;;;13.46;87.05
17615;BME280;8926;49.720;6.576;2023-05-12T01:06:54;99512.06;;;13.46;87.00
17615;BME280;8926;49.720;6.576;2023-05-12T01:09:20;99504.19;;;13.46;86.64
17615;BME280;8926;49.720;6.576;2023-05-12T01:11:46;99507.66;;;13.47;86.77
17615;BME280;8926;49.720;6.576;2023-05-12T01:14:11;99506.72;;;13.48;86.32
17615;BME280;8926;49.720;6.576;2023-05-12T01:16:42;99494.44;;;13.48;86.14
17615;BME280;8926;49.720;6.576;2023-05-12T01:19:18;99501.56;;;13.46;86.92
17615;BME280;8926;49.720;6.576;2023-05-12T01:21:48;99496.31;;;13.46;87.43
17615;BME280;8926;49.720;6.576;2023-05-12T01:24:16;99500.84;;;13.44;87.31
17615;BME280;8926;49.720;6.576;2023-05-12T01:26:43;99502.50;;;13.45;87.73
17615;BME280;8926;49.720;6.576;2023-05-12T01:29:09;99492.97;;;13.44;87.14
17615;BME280;8926;49.720;6.576;2023-05-12T01:31:35;99489.63;;;13.42;87.63
17615;BME280;8926;49.720;6.576;2023-05-12T01:34:00;99500.00;;;13.44;88.00
17615;BME280;8926;49.720;6.576;2023-05-12T01:36:25;99500.72;;;13.46;87.82
17615;BME280;8926;49.720;6.576;2023-05-12T01:38:51;99495.59;;;13.44;87.83
17615;BME280;8926;49.720;6.576;2023-05-12T01:41:16;99492.03;;;13.45;87.83
17615;BME280;8926;49.720;6.576;2023-05-12T01:43:41;99494.75;;;13.44;87.61
17615;BME280;8926;49.720;6.576;2023-05-12T01:46:07;99499.16;;;13.43;87.77
17615;BME280;8926;49.720;6.576;2023-05-12T01:48:34;99492.03;;;13.45;87.60
17615;BME280;8926;49.720;6.576;2023-05-12T01:51:00;99491.19;;;13.45;87.50
17615;BME280;8926;49.720;6.576;2023-05-12T01:53:25;99490.25;;;13.46;87.99
17615;BME280;8926;49.720;6.576;2023-05-12T01:55:51;99487.00;;;13.42;87.76
17615;BME280;8926;49.720;6.576;2023-05-12T01:58:16;99489.72;;;13.41;87.90
17615;BME280;8926;49.720;6.576;2023-05-12T02:00:42;99486.47;;;13.37;88.06
17615;BME280;8926;49.720;6.576;2023-05-12T02:03:08;99480.06;;;13.41;87.16
17615;BME280;8926;49.720;6.576;2023-05-12T02:05:33;99487.94;;;13.41;87.27
17615;BME280;8926;49.720;6.576;2023-05-12T02:07:58;99489.72;;;13.41;87.34
17615;BME280;8926;49.720;6.576;2023-05-12T02:10:24;99490.56;;;13.41;87.57
17615;BME280;8926;49.720;6.576;2023-05-12T02:12:49;99484.47;;;13.41;87.29
17615;BME280;8926;49.720;6.576;2023-05-12T02:15:14;99490.78;;;13.38;87.52
17615;BME280;8926;49.720;6.576;2023-05-12T02:17:39;99490.06;;;13.36;87.79
17615;BME280;8926;49.720;6.576;2023-05-12T02:20:05;99486.47;;;13.37;88.16
17615;BME280;8926;49.720;6.576;2023-05-12T02:22:31;99482.19;;;13.36;87.40
17615;BME280;8926;49.720;6.576;2023-05-12T02:24:56;99481.97;;;13.39;86.76
17615;BME280;8926;49.720;6.576;2023-05-12T02:27:21;99492.25;;;13.42;86.78
17615;BME280;8926;49.720;6.576;2023-05-12T02:29:47;99481.84;;;13.41;86.28
17615;BME280;8926;49.720;6.576;2023-05-12T02:32:12;99487.00;;;13.42;87.48
17615;BME280;8926;49.720;6.576;2023-05-12T02:34:37;99483.63;;;13.40;86.33
17615;BME280;8926;49.720;6.576;2023-05-12T02:37:03;99482.19;;;13.36;86.67
17615;BME280;8926;49.720;6.576;2023-05-12T02:39:28;99478.81;;;13.34;85.96
17615;BME280;8926;49.720;6.576;2023-05-12T02:41:54;99486.28;;;13.28;86.77
17615;BME280;8926;49.720;6.576;2023-05-12T02:44:19;99482.84;;;13.27;87.31
17615;BME280;8926;49.720;6.576;2023-05-12T02:46:46;99477.69;;;13.25;87.51
17615;BME280;8926;49.720;6.576;2023-05-12T02:49:11;99479.50;;;13.25;87.13
17615;BME280;8926;49.720;6.576;2023-05-12T02:51:37;99475.91;;;13.26;87.36
17615;BME280;8926;49.720;6.576;2023-05-12T02:54:02;99479.50;;;13.25;87.33
17615;BME280;8926;49.720;6.576;2023-05-12T02:56:27;99484.75;;;13.25;87.61
17615;BME280;8926;49.720;6.576;2023-05-12T02:58:53;99481.16;;;13.26;88.65
17615;BME280;8926;49.720;6.576;2023-05-12T03:01:18;99474.84;;;13.29;88.92
17615;BME280;8926;49.720;6.576;2023-05-12T03:03:43;99471.28;;;13.30;88.31
17615;BME280;8926;49.720;6.576;2023-05-12T03:06:09;99471.91;;;13.33;88.75
17615;BME280;8926;49.720;6.576;2023-05-12T03:08:34;99475.03;;;13.38;88.94
17615;BME280;8926;49.720;6.576;2023-05-12T03:11:00;99473.38;;;13.37;88.96
17615;BME280;8926;49.720;6.576;2023-05-12T03:13:26;99471.69;;;13.36;89.03
17615;BME280;8926;49.720;6.576;2023-05-12T03:15:51;99470.97;;;13.34;89.15
17615;BME280;8926;49.720;6.576;2023-05-12T03:18:16;99469.38;;;13.32;89.01
17615;BME280;8926;49.720;6.576;2023-05-12T03:20:42;99466.66;;;13.33;89.10
17615;BME280;8926;49.720;6.576;2023-05-12T03:23:07;99475.25;;;13.35;88.82
17615;BME280;8926;49.720;6.576;2023-05-12T03:25:32;99475.03;;;13.38;88.67
17615;BME280;8926;49.720;6.576;2023-05-12T03:28:00;99470.41;;;13.42;88.52
17615;BME280;8926;49.720;6.576;2023-05-12T03:30:25;99472.94;;;13.43;88.87
17615;BME280;8926;49.720;6.576;2023-05-12T03:32:51;99467.69;;;13.43;88.85
17615;BME280;8926;49.720;6.576;2023-05-12T03:35:16;99468.50;;;13.44;88.73
17615;BME280;8926;49.720;6.576;2023-05-12T03:37:41;99467.69;;;13.43;89.25
17615;BME280;8926;49.720;6.576;2023-05-12T03:40:07;99460.97;;;13.39;89.38
17615;BME280;8926;49.720;6.576;2023-05-12T03:42:32;99462.66;;;13.40;88.63
17615;BME280;8926;49.720;6.576;2023-05-12T03:44:58;99462.66;;;13.40;87.64
17615;BME280;8926;49.720;6.576;2023-05-12T03:47:23;99463.81;;;13.36;87.28
17615;BME280;8926;49.720;6.576;2023-05-12T03:49:48;99466.66;;;13.33;87.16
17615;BME280;8926;49.720;6.576;2023-05-12T03:52:14;99453.75;;;13.30;86.80
17615;BME280;8926;49.720;6.576;2023-05-12T03:54:39;99460.16;;;13.26;87.66
17615;BME280;8926;49.720;6.576;2023-05-12T03:57:05;99456.59;;;13.27;87.84
17615;BME280;8926;49.720;6.576;2023-05-12T03:59:30;99451.81;;;13.21;87.95
17615;BME280;8926;49.720;6.576;2023-05-12T04:01:56;99457.28;;;13.18;87.62
17615;BME280;8926;49.720;6.576;2023-05-12T04:04:22;99455.38;;;13.20;88.68
17615;BME280;8926;49.720;6.576;2023-05-12T04:06:47;99456.13;;;13.22;88.59
17615;BME280;8926;49.720;6.576;2023-05-12T04:09:12;99458.53;;;13.25;88.14
17615;BME280;8926;49.720;6.576;2023-05-12T04:11:38;99451.34;;;13.27;88.62
17615;BME280;8926;49.720;6.576;2023-05-12T04:14:03;99455.44;;;13.31;89.11
17615;BME280;8926;49.720;6.576;2023-05-12T04:16:28;99456.16;;;13.33;88.19
17615;BME280;8926;49.720;6.576;2023-05-12T04:18:54;99462.88;;;13.37;87.76
17615;BME280;8926;49.720;6.576;2023-05-12T04:21:19;99455.72;;;13.39;88.28
17615;BME280;8926;49.720;6.576;2023-05-12T04:23:45;99466.00;;;13.42;88.46
17615;BME280;8926;49.720;6.576;2023-05-12T04:26:10;99452.78;;;13.44;88.57
17615;BME280;8926;49.720;6.576;2023-05-12T04:28:35;99455.06;;;13.48;88.83
17615;BME280;8926;49.720;6.576;2023-05-12T04:31:02;99453.84;;;13.52;88.45
17615;BME280;8926;49.720;6.576;2023-05-12T04:33:29;99454.81;;;13.51;87.77
17615;BME280;8926;49.720;6.576;2023-05-12T04:35:57;99455.78;;;13.50;87.34
17615;BME280;8926;49.720;6.576;2023-05-12T04:38:23;99455.06;;;13.48;87.44
17615;BME280;8926;49.720;6.576;2023-05-12T04:40:48;99462.22;;;13.46;87.34
17615;BME280;8926;49.720;6.576;2023-05-12T04:43:13;99462.44;;;13.43;87.23
17615;BME280;8926;49.720;6.576;2023-05-12T04:45:39;99462.66;;;13.40;87.71
17615;BME280;8926;49.720;6.576;2023-05-12T04:48:04;99468.84;;;13.39;88.13
17615;BME280;8926;49.720;6.576;2023-05-12T04:50:29;99461.69;;;13.41;89.27
17615;BME280;8926;49.720;6.576;2023-05-12T04:52:55;99467.69;;;13.43;89.37
17615;BME280;8926;49.720;6.576;2023-05-12T04:55:20;99463.88;;;13.47;88.84
17615;BME280;8926;49.720;6.576;2023-05-12T04:57:46;99473.44;;;13.48;89.01
17615;BME280;8926;49.720;6.576;2023-05-12T05:00:11;99472.22;;;13.52;89.08
17615;BME280;8926;49.720;6.576;2023-05-12T05:02:37;99477.47;;;13.52;89.22
17615;BME280;8926;49.720;6.576;2023-05-12T05:05:03;99466.03;;;13.53;89.43
17615;BME280;8926;49.720;6.576;2023-05-12T05:07:28;99472.00;;;13.55;89.22
17615;BME280;8926;49.720;6.576;2023-05-12T05:09:53;99480.84;;;13.54;89.01
17615;BME280;8926;49.720;6.576;2023-05-12T05:12:19;99476.41;;;13.55;88.56
17615;BME280;8926;49.720;6.576;2023-05-12T05:14:44;99480.63;;;13.57;88.96
17615;BME280;8926;49.720;6.576;2023-05-12T05:17:09;99481.34;;;13.59;89.01
17615;BME280;8926;49.720;6.576;2023-05-12T05:19:36;99480.28;;;13.62;88.50
17615;BME280;8926;49.720;6.576;2023-05-12T05:22:02;99483.75;;;13.63;88.65
17615;BME280;8926;49.720;6.576;2023-05-12T05:24:27;99489.00;;;13.63;88.38
17615;BME280;8926;49.720;6.576;2023-05-12T05:26:52;99481.84;;;13.65;87.79
17615;BME280;8926;49.720;6.576;2023-05-12T05:29:18;99487.94;;;13.65;87.17
17615;BME280;8926;49.720;6.576;2023-05-12T05:31:43;99493.19;;;13.65;87.65
17615;BME280;8926;49.720;6.576;2023-05-12T05:34:08;99494.03;;;13.66;87.28
17615;BME280;8926;49.720;6.576;2023-05-12T05:36:33;99501.16;;;13.64;87.14
17615;BME280;8926;49.720;6.576;2023-05-12T05:38:59;99492.56;;;13.62;87.90
17615;BME280;8926;49.720;6.576;2023-05-12T05:41:24;99495.31;;;13.60;88.29
17615;BME280;8926;49.720;6.576;2023-05-12T05:43:50;99501.38;;;13.61;88.49
17615;BME280;8926;49.720;6.576;2023-05-12T05:46:15;99496.13;;;13.61;88.38
17615;BME280;8926;49.720;6.576;2023-05-12T05:48:40;99501.28;;;13.62;88.90
17615;BME280;8926;49.720;6.576;2023-05-12T05:51:06;99500.22;;;13.65;88.89
17615;BME280;8926;49.720;6.576;2023-05-12T05:53:31;99500.94;;;13.67;88.24
17615;BME280;8926;49.720;6.576;2023-05-12T05:55:56;99503.25;;;13.71;89.86
17615;BME280;8926;49.720;6.576;2023-05-12T05:58:22;99499.19;;;13.78;89.31
17615;BME280;8926;49.720;6.576;2023-05-12T06:00:47;99502.94;;;13.87;89.36
17615;BME280;8926;49.720;6.576;2023-05-12T06:03:12;99498.69;;;13.97;88.79
17615;BME280;8926;49.720;6.576;2023-05-12T06:05:38;99499.66;;;14.07;88.31
17615;BME280;8926;49.720;6.576;2023-05-12T06:08:06;99500.25;;;14.11;87.84
17615;BME280;8926;49.720;6.576;2023-05-12T06:10:33;99506.25;;;14.13;87.77
17615;BME280;8926;49.720;6.576;2023-05-12T06:12:58;99502.66;;;14.14;87.39
17615;BME280;8926;49.720;6.576;2023-05-12T06:15:24;99513.06;;;14.15;86.46
17615;BME280;8926;49.720;6.576;2023-05-12T06:17:49;99514.97;;;14.13;86.79
17615;BME280;8926;49.720;6.576;2023-05-12T06:20:14;99511.50;;;14.13;86.63
17615;BME280;8926;49.720;6.576;2023-05-12T06:22:40;99520.44;;;14.10;86.27
17615;BME280;8926;49.720;6.576;2023-05-12T06:25:08;99520.66;;;14.07;88.00
17615;BME280;8926;49.720;6.576;2023-05-12T06:27:34;99524.41;;;14.16;86.62
17615;BME280;8926;49.720;6.576;2023-05-12T06:29:59;99526.69;;;14.20;87.54
17615;BME280;8926;49.720;6.576;2023-05-12T06:32:24;99525.63;;;14.23;86.30
17615;BME280;8926;49.720;6.576;2023-05-12T06:34:50;99522.88;;;14.24;86.65
17615;BME280;8926;49.720;6.576;2023-05-12T06:37:16;99524.06;;;14.32;85.89
17615;BME280;8926;49.720;6.576;2023-05-12T06:39:41;99521.94;;;14.37;85.87
17615;BME280;8926;49.720;6.576;2023-05-12T06:42:06;99521.50;;;14.43;85.08
17615;BME280;8926;49.720;6.576;2023-05-12T06:44:32;99535.38;;;14.45;84.80
17615;BME280;8926;49.720;6.576;2023-05-12T06:46:57;99530.97;;;14.45;84.49
17615;BME280;8926;49.720;6.576;2023-05-12T06:49:23;99533.59;;;14.45;85.03
17615;BME280;8926;49.720;6.576;2023-05-12T06:51:48;99538.72;;;14.47;84.90
17615;BME280;8926;49.720;6.576;2023-05-12T06:54:13;99537.31;;;14.54;84.53
17615;BME280;8926;49.720;6.576;2023-05-12T06:56:39;99535.53;;;14.54;84.39
17615;BME280;8926;49.720;6.576;2023-05-12T06:59:04;99536.59;;;14.63;83.98
17615;BME280;8926;49.720;6.576;2023-05-12T07:01:30;99537.34;;;14.76;83.78
17615;BME280;8926;49.720;6.576;2023-05-12T07:03:56;99526.34;;;14.93;83.50
17615;BME280;8926;49.720;6.576;2023-05-12T07:06:22;99530.88;;;15.03;82.71
17615;BME280;8926;49.720;6.576;2023-05-12T07:08:47;99531.34;;;15.19;83.30
17615;BME280;8926;49.720;6.576;2023-05-12T07:11:13;99529.53;;;15.31;83.22
17615;BME280;8926;49.720;6.576;2023-05-12T07:13:50;99526.03;;;15.41;82.80
17615;BME280;8926;49.720;6.576;2023-05-12T07:16:16;99519.31;;;15.48;81.92
17615;BME280;8926;49.720;6.576;2023-05-12T07:18:42;99525.31;;;15.50;81.73
17615;BME280;8926;49.720;6.576;2023-05-12T07:21:07;99526.03;;;15.52;81.20
17615;BME280;8926;49.720;6.576;2023-05-12T07:23:33;99531.16;;;15.54;81.75
17615;BME280;8926;49.720;6.576;2023-05-12T07:26:00;99530.31;;;15.53;81.58
17615;BME280;8926;49.720;6.576;2023-05-12T07:28:28;99535.84;;;15.50;81.35
17615;BME280;8926;49.720;6.576;2023-05-12T07:30:56;99538.00;;;15.45;80.71
17615;BME280;8926;49.720;6.576;2023-05-12T07:33:22;99536.31;;;15.44;80.88
17615;BME280;8926;49.720;6.576;2023-05-12T07:35:47;99538.47;;;15.39;80.77
17615;BME280;8926;49.720;6.576;2023-05-12T07:38:12;99540.16;;;15.40;81.11
17615;BME280;8926;49.720;6.576;2023-05-12T07:40:38;99542.06;;;15.38;80.87
17615;BME280;8926;49.720;6.576;2023-05-12T07:43:04;99535.38;;;15.34;80.25
17615;BME280;8926;49.720;6.576;2023-05-12T07:45:29;99534.06;;;15.40;80.71
17615;BME280;8926;49.720;6.576;2023-05-12T07:47:54;99541.81;;;15.41;80.52
17615;BME280;8926;49.720;6.576;2023-05-12T07:50:20;99539.66;;;15.46;80.60
17615;BME280;8926;49.720;6.576;2023-05-12T07:52:49;99537.28;;;15.54;80.95
17615;BME280;8926;49.720;6.576;2023-05-12T07:55:15;99537.91;;;15.58;80.80
17615;BME280;8926;49.720;6.576;2023-05-12T07:57:41;99534.16;;;15.60;80.85
17615;BME280;8926;49.720;6.576;2023-05-12T08:00:08;99536.28;;;15.67;80.83
17615;BME280;8926;49.720;6.576;2023-05-12T08:02:36;99536.88;;;15.70;80.51
17615;BME280;8926;49.720;6.576;2023-05-12T08:05:01;99531.50;;;15.72;80.19
17615;BME280;8926;49.720;6.576;2023-05-12T08:07:27;99539.63;;;15.69;79.88
17615;BME280;8926;49.720;6.576;2023-05-12T08:09:52;99537.38;;;15.64;79.72
17615;BME280;8926;49.720;6.576;2023-05-12T08:12:18;99548.75;;;15.65;79.90
17615;BME280;8926;49.720;6.576;2023-05-12T08:14:43;99542.03;;;15.60;79.92
17615;BME280;8926;49.720;6.576;2023-05-12T08:17:09;99545.16;;;15.54;79.54
17615;BME280;8926;49.720;6.576;2023-05-12T08:19:34;99557.28;;;15.57;80.18
17615;BME280;8926;49.720;6.576;2023-05-12T08:22:00;99549.25;;;15.58;80.29
17615;BME280;8926;49.720;6.576;2023-05-12T08:24:26;99550.09;;;15.59;79.83
17615;BME280;8926;49.720;6.576;2023-05-12T08:26:51;99561.72;;;15.56;80.15
17615;BME280;8926;49.720;6.576;2023-05-12T08:29:16;99551.19;;;15.56;79.87
17615;BME280;8926;49.720;6.576;2023-05-12T08:31:41;99556.66;;;15.53;79.62
17615;BME280;8926;49.720;6.576;2023-05-12T08:34:07;99557.38;;;15.55;80.05
17615;BME280;8926;49.720;6.576;2023-05-12T08:36:32;99553.81;;;15.56;79.95
17615;BME280;8926;49.720;6.576;2023-05-12T08:38:58;99556.88;;;15.61;80.40
17615;BME280;8926;49.720;6.576;2023-05-12T08:41:43;99566.22;;;15.66;80.00
17615;BME280;8926;49.720;6.576;2023-05-12T08:44:10;99558.78;;;15.71;80.02
17615;BME280;8926;49.720;6.576;2023-05-12T08:46:36;99567.41;;;15.73;80.19
17615;BME280;8926;49.720;6.576;2023-05-12T08:49:03;99563.09;;;15.72;80.13
17615;BME280;8926;49.720;6.576;2023-05-12T08:51:31;99565.50;;;15.75;80.37
17615;BME280;8926;49.720;6.576;2023-05-12T08:53:57;99562.97;;;15.73;80.31
17615;BME280;8926;49.720;6.576;2023-05-12T08:56:22;99557.94;;;15.70;79.76
17615;BME280;8926;49.720;6.576;2023-05-12T08:58:49;99564.31;;;15.68;80.34
17615;BME280;8926;49.720;6.576;2023-05-12T09:01:15;99571.25;;;15.69;80.81
17615;BME280;8926;49.720;6.576;2023-05-12T09:03:41;99564.06;;;15.71;79.67
17615;BME280;8926;49.720;6.576;2023-05-12T09:06:07;99568.50;;;15.70;80.14
17615;BME280;8926;49.720;6.576;2023-05-12T09:08:33;99565.50;;;15.75;80.27
17615;BME280;8926;49.720;6.576;2023-05-12T09:10:59;99570.50;;;15.78;79.73
17615;BME280;8926;49.720;6.576;2023-05-12T09:13:40;99568.84;;;15.77;80.32
17615;BME280;8926;49.720;6.576;2023-05-12T09:16:11;99569.69;;;15.77;80.92
17615;BME280;8926;49.720;6.576;2023-05-12T09:18:52;99572.19;;;15.79;81.53
17615;BME280;8926;49.720;6.576;2023-05-12T09:21:18;99567.63;;;15.81;80.83
17615;BME280;8926;49.720;6.576;2023-05-12T09:23:57;99563.06;;;15.83;81.85
17615;BME280;8926;49.720;6.576;2023-05-12T09:26:24;99570.59;;;15.87;81.14
17615;BME280;8926;49.720;6.576;2023-05-12T09:29:03;99568.16;;;15.95;80.90
17615;BME280;8926;49.720;6.576;2023-05-12T09:31:30;99561.31;;;16.04;81.00
17615;BME280;8926;49.720;6.576;2023-05-12T09:33:57;99572.19;;;16.11;80.15
17615;BME280;8926;49.720;6.576;2023-05-12T09:36:23;99572.75;;;16.14;79.75
17615;BME280;8926;49.720;6.576;2023-05-12T09:39:18;99563.63;;;16.18;79.23
17615;BME280;8926;49.720;6.576;2023-05-12T09:41:43;99565.66;;;16.26;79.37
17615;BME280;8926;49.720;6.576;2023-05-12T09:44:09;99569.00;;;16.28;79.14
17615;BME280;8926;49.720;6.576;2023-05-12T09:46:36;99562.63;;;16.31;79.00
17615;BME280;8926;49.720;6.576;2023-05-12T09:49:01;99565.97;;;16.33;78.83
17615;BME280;8926;49.720;6.576;2023-05-12T09:51:28;99565.44;;;16.39;78.45
17615;BME280;8926;49.720;6.576;2023-05-12T09:53:54;99561.91;;;16.49;78.35
17615;BME280;8926;49.720;6.576;2023-05-12T09:56:19;99563.66;;;16.60;77.93
17615;BME280;8926;49.720;6.576;2023-05-12T09:58:48;99563.16;;;16.66;77.30
17615;BME280;8926;49.720;6.576;2023-05-12T10:01:18;99565.78;;;16.66;76.79
17615;BME280;8926;49.720;6.576;2023-05-12T10:03:53;99566.75;;;16.65;76.39
17615;BME280;8926;49.720;6.576;2023-05-12T10:11:30;99562.63;;;16.72;77.54
17615;BME280;8926;49.720;6.576;2023-05-12T10:13:56;99570.09;;;16.67;77.39
17615;BME280;8926;49.720;6.576;2023-05-12T10:16:23;99563.72;;;16.70;78.17
17615;BME280;8926;49.720;6.576;2023-05-12T10:18:49;99559.88;;;16.74;77.71
17615;BME280;8926;49.720;6.576;2023-05-12T10:21:15;99558.78;;;16.76;78.35
17615;BME280;8926;49.720;6.576;2023-05-12T10:23:40;99561.47;;;16.86;78.70
17615;BME280;8926;49.720;6.576;2023-05-12T10:26:06;99566.06;;;16.93;78.87
17615;BME280;8926;49.720;6.576;2023-05-12T10:28:31;99558.59;;;16.99;78.85
17615;BME280;8926;49.720;6.576;2023-05-12T10:30:57;99547.53;;;17.05;77.99
17615;BME280;8926;49.720;6.576;2023-05-12T10:33:23;99555.50;;;17.14;77.71
17615;BME280;8926;49.720;6.576;2023-05-12T10:35:50;99552.44;;;17.19;78.38
17615;BME280;8926;49.720;6.576;2023-05-12T10:38:16;99547.00;;;17.20;78.63
17615;BME280;8926;49.720;6.576;2023-05-12T10:40:53;99557.84;;;17.17;78.59
17615;BME280;8926;49.720;6.576;2023-05-12T10:43:24;99559.38;;;17.10;78.47
17615;BME280;8926;49.720;6.576;2023-05-12T10:48:48;99569.94;;;16.89;78.34
17615;BME280;8926;49.720;6.576;2023-05-12T10:51:18;99574.88;;;16.73;78.43
17615;BME280;8926;49.720;6.576;2023-05-12T10:53:45;99578.59;;;16.50;78.55
17615;BME280;8926;49.720;6.576;2023-05-12T10:56:10;99584.75;;;16.39;79.82
17615;BME280;8926;49.720;6.576;2023-05-12T10:58:35;99576.53;;;16.33;79.99
17615;BME280;8926;49.720;6.576;2023-05-12T11:01:05;99575.22;;;16.27;79.33
17615;BME280;8926;49.720;6.576;2023-05-12T11:03:31;99572.88;;;16.13;80.18
17615;BME280;8926;49.720;6.576;2023-05-12T11:05:59;99567.72;;;16.11;80.60
17615;BME280;8926;49.720;6.576;2023-05-12T11:08:25;99567.72;;;16.11;81.30
17615;BME280;8926;49.720;6.576;2023-05-12T11:10:51;99570.84;;;16.16;81.39
17615;BME280;8926;49.720;6.576;2023-05-12T11:13:17;99570.59;;;16.19;81.17
17615;BME280;8926;49.720;6.576;2023-05-12T11:15:43;99572.00;;;16.23;81.95
17615;BME280;8926;49.720;6.576;2023-05-12T11:18:09;99564.91;;;16.35;81.54
17615;BME280;8926;49.720;6.576;2023-05-12T11:20:36;99569.25;;;16.46;81.82
17615;BME280;8926;49.720;6.576;2023-05-12T11:23:01;99562.69;;;16.61;81.67
17615;BME280;8926;49.720;6.576;2023-05-12T11:25:27;99564.06;;;16.76;81.44
17615;BME280;8926;49.720;6.576;2023-05-12T11:27:53;99561.06;;;16.90;80.94
17615;BME280;8926;49.720;6.576;2023-05-12T11:30:18;99561.88;;;17.12;81.71
17615;BME280;8926;49.720;6.576;2023-05-12T11:32:44;99558.47;;;17.30;80.77
17615;BME280;8926;49.720;6.576;2023-05-12T11:35:15;99552.22;;;17.41;79.88
17615;BME280;8926;49.720;6.576;2023-05-12T11:37:43;99559.34;;;17.41;79.38
17615;BME280;8926;49.720;6.576;2023-05-12T11:40:12;99560.13;;;17.41;79.12
17615;BME280;8926;49.720;6.576;2023-05-12T11:42:37;99559.16;;;17.33;77.77
17615;BME280;8926;49.720;6.576;2023-05-12T11:45:05;99565.63;;;17.19;76.79
17615;BME280;8926;49.720;6.576;2023-05-12T11:47:31;99570.06;;;17.09;78.09
17615;BME280;8926;49.720;6.576;2023-05-12T11:49:56;99560.28;;;17.00;78.56
17615;BME280;8926;49.720;6.576;2023-05-12T11:52:23;99569.69;;;16.92;80.26
17615;BME280;8926;49.720;6.576;2023-05-12T11:57:23;99568.19;;;16.69;81.27
17615;BME280;8926;49.720;6.576;2023-05-12T11:59:55;99563.38;;;16.63;80.49
17615;BME280;8926;49.720;6.576;2023-05-12T12:02:22;99567.28;;;16.59;80.63
17615;BME280;8926;49.720;6.576;2023-05-12T12:04:47;99568.44;;;16.66;80.94
17615;BME280;8926;49.720;6.576;2023-05-12T12:07:12;99569.59;;;16.73;81.29
17615;BME280;8926;49.720;6.576;2023-05-12T12:09:39;99563.53;;;16.82;80.64
17615;BME280;8926;49.720;6.576;2023-05-12T12:12:09;99567.63;;;16.96;80.49
17615;BME280;8926;49.720;6.576;2023-05-12T12:14:36;99566.44;;;17.10;80.04
17615;BME280;8926;49.720;6.576;2023-05-12T12:17:03;99566.38;;;17.30;79.93
17615;BME280;8926;49.720;6.576;2023-05-12T12:19:28;99570.44;;;17.44;79.26
17615;BME280;8926;49.720;6.576;2023-05-12T12:21:54;99565.59;;;17.49;78.74
17615;BME280;8926;49.720;6.576;2023-05-12T12:24:20;99567.97;;;17.52;78.14
17615;BME280;8926;49.720;6.576;2023-05-12T12:26:45;99564.34;;;17.53;77.51
17615;BME280;8926;49.720;6.576;2023-05-12T12:29:11;99568.00;;;17.62;77.55
17615;BME280;8926;49.720;6.576;2023-05-12T12:31:36;99564.41;;;17.73;77.91
17615;BME280;8926;49.720;6.576;2023-05-12T12:34:02;99568.63;;;17.85;78.13
17615;BME280;8926;49.720;6.576;2023-05-12T12:36:28;99562.22;;;17.97;77.59
17615;BME280;8926;49.720;6.576;2023-05-12T12:38:54;99563.91;;;18.08;75.80
17615;BME280;8926;49.720;6.576;2023-05-12T12:41:19;99568.34;;;18.26;75.90
17615;BME280;8926;49.720;6.576;2023-05-12T12:43:44;99561.25;;;18.37;75.60
17615;BME280;8926;49.720;6.576;2023-05-12T12:46:10;99561.34;;;18.54;76.05
17615;BME280;8926;49.720;6.576;2023-05-12T12:48:35;99566.66;;;18.64;74.92
17615;BME280;8926;49.720;6.576;2023-05-12T12:51:01;99566.31;;;18.77;74.32
17615;BME280;8926;49.720;6.576;2023-05-12T12:53:26;99564.41;;;18.69;73.33
17615;BME280;8926;49.720;6.576;2023-05-12T12:55:52;99565.78;;;18.54;72.90
17615;BME280;8926;49.720;6.576;2023-05-12T12:58:18;99569.59;;;18.42;73.54
17615;BME280;8926;49.720;6.576;2023-05-12T13:00:43;99567.50;;;18.36;73.50
17615;BME280;8926;49.720;6.576;2023-05-12T13:03:08;99576.69;;;18.31;73.61
17615;BME280;8926;49.720;6.576;2023-05-12T13:05:34;99576.41;;;18.25;73.74
17615;BME280;8926;49.720;6.576;2023-05-12T13:07:59;99576.16;;;18.18;73.37
17615;BME280;8926;49.720;6.576;2023-05-12T13:10:25;99577.97;;;18.18;73.20
17615;BME280;8926;49.720;6.576;2023-05-12T13:12:51;99573.50;;;18.18;73.51
17615;BME280;8926;49.720;6.576;2023-05-12T13:15:16;99569.19;;;18.17;73.16